Time;durP1;ratioP1;P1;durP2;ratioP2;P2;SDS_P1;SDS_P2;PMS_P1;PMS_P2;Temp;Humidity;BMP_temperature;BMP_pressure;BME280_temperature;BME280_humidity;BME280_pressure;Samples;Min_cycle;Max_cycle;Signal;HPM_P1;HPM_P2
2022/08/09 00:01:59;;;;;;;6.88;3.60;;;15.00;99.90;;;;;;5037331;28;20056;-78
2022/08/09 00:04:25;;;;;;;7.68;3.50;;;15.00;99.90;;;;;;5037585;28;20416;-78
2022/08/09 00:06:51;;;;;;;7.40;3.65;;;15.00;99.90;;;;;;5036627;28;20116;-78
2022/08/09 00:09:16;;;;;;;6.30;3.40;;;15.00;99.90;;;;;;5053143;28;20120;-76
2022/08/09 00:11:43;;;;;;;5.65;3.40;;;14.90;99.90;;;;;;5036033;28;20044;-78
2022/08/09 00:14:10;;;;;;;5.68;3.30;;;14.90;99.90;;;;;;5036279;28;20049;-79
2022/08/09 00:16:36;;;;;;;4.60;3.13;;;14.90;99.90;;;;;;5036709;28;20112;-78
2022/08/09 00:19:02;;;;;;;6.10;3.47;;;14.80;99.90;;;;;;5036369;28;20051;-78
2022/08/09 00:21:27;;;;;;;6.97;3.30;;;14.80;99.90;;;;;;5035735;28;20049;-79
2022/08/09 00:23:54;;;;;;;7.32;3.38;;;14.80;99.90;;;;;;5019435;28;20125;-78
2022/08/09 00:26:20;;;;;;;5.63;3.40;;;14.80;99.90;;;;;;5035959;28;20041;-78
2022/08/09 00:28:46;;;;;;;5.15;3.20;;;14.70;99.90;;;;;;5053841;28;20384;-78
2022/08/09 00:31:12;;;;;;;7.22;3.40;;;14.70;99.90;;;;;;5035402;28;20056;-78
2022/08/09 00:33:38;;;;;;;8.27;3.50;;;14.70;99.90;;;;;;5035687;28;20044;-78
2022/08/09 00:36:04;;;;;;;6.28;3.33;;;14.60;99.90;;;;;;5035878;28;20047;-78
2022/08/09 00:38:29;;;;;;;8.15;3.40;;;14.60;99.90;;;;;;5035717;28;20044;-79
2022/08/09 00:40:55;;;;;;;5.68;3.58;;;14.60;99.90;;;;;;5035343;28;20044;-77
2022/08/09 00:43:22;;;;;;;6.22;3.17;;;14.50;99.90;;;;;;5035624;28;20407;-78
2022/08/09 00:45:48;;;;;;;4.88;3.63;;;14.50;99.90;;;;;;5035757;28;20041;-76
2022/08/09 00:48:13;;;;;;;5.95;3.40;;;14.50;99.90;;;;;;5052353;28;20135;-77
2022/08/09 00:50:39;;;;;;;5.55;3.28;;;14.40;99.90;;;;;;5035181;28;20123;-78
2022/08/09 00:53:05;;;;;;;7.10;3.45;;;14.50;99.90;;;;;;5035589;28;20467;-78
2022/08/09 00:55:31;;;;;;;6.05;3.53;;;14.50;99.90;;;;;;5035516;28;20037;-78
2022/08/09 00:57:57;;;;;;;6.80;3.38;;;14.50;99.90;;;;;;5038590;28;20124;-77
2022/08/09 01:00:23;;;;;;;7.03;3.30;;;14.50;99.90;;;;;;5073203;28;20040;-78
2022/08/09 01:02:54;;;;;;;6.65;3.55;;;14.40;99.90;;;;;;5051706;28;20121;-78
2022/08/09 01:05:41;;;;;;;7.97;4.45;;;14.40;99.90;;;;;;5018341;28;20116;-78
2022/08/09 01:08:14;;;;;;;7.65;3.80;;;14.40;99.90;;;;;;5035027;28;20062;-78
2022/08/09 01:10:58;;;;;;;10.27;3.83;;;14.40;99.90;;;;;;5034721;28;20396;-78
2022/08/09 01:13:54;;;;;;;8.48;3.90;;;14.40;99.90;;;;;;5018465;28;20045;-78
2022/08/09 01:16:25;;;;;;;5.88;4.22;;;14.40;99.90;;;;;;5035320;28;20134;-79
2022/08/09 01:18:54;;;;;;;12.75;4.57;;;14.40;99.90;;;;;;5052896;28;20159;-78
2022/08/09 01:21:46;;;;;;;7.10;3.75;;;14.40;99.90;;;;;;5034706;28;20045;-78
2022/08/09 01:24:27;;;;;;;12.27;3.75;;;14.40;99.90;;;;;;5034920;28;20045;-78
2022/08/09 01:27:00;;;;;;;6.57;4.55;;;14.40;99.90;;;;;;5035069;28;20049;-79
2022/08/09 01:29:45;;;;;;;6.78;4.20;;;14.40;99.90;;;;;;5034942;28;20436;-81
2022/08/09 01:32:14;;;;;;;10.57;4.55;;;14.30;99.90;;;;;;5035083;28;20053;-79
2022/08/09 01:34:43;;;;;;;6.43;3.72;;;14.30;99.90;;;;;;5052636;28;20399;-79
2022/08/09 01:37:11;;;;;;;10.60;4.35;;;14.20;99.90;;;;;;5018357;28;20127;-80
2022/08/09 01:39:39;;;;;;;9.77;4.70;;;14.30;99.90;;;;;;5034394;28;20048;-78
2022/08/09 01:42:07;;;;;;;11.70;4.97;;;14.30;99.90;;;;;;5034462;28;20511;-79
2022/08/09 01:44:33;;;;;;;6.28;4.22;;;14.30;99.90;;;;;;5034374;28;20053;-78
2022/08/09 01:47:01;;;;;;;12.57;4.78;;;14.20;99.90;;;;;;5034510;28;20037;-79
2022/08/09 01:49:31;;;;;;;6.20;4.53;;;14.20;99.90;;;;;;5052142;28;20041;-79
2022/08/09 01:52:02;;;;;;;7.07;4.60;;;14.20;99.90;;;;;;5018178;28;20112;-78
2022/08/09 01:54:34;;;;;;;8.95;4.20;;;14.20;99.90;;;;;;5034318;28;20052;-79
2022/08/09 01:57:03;;;;;;;;;;;14.20;99.90;;;;;;5034787;28;20045;-78
2022/08/09 01:59:31;;;;;;;10.57;5.80;;;14.20;99.90;;;;;;5052088;28;19968;-79
2022/08/09 02:01:57;;;;;;;9.57;4.43;;;14.10;99.90;;;;;;5033944;28;20159;-78
2022/08/09 02:04:24;;;;;;;8.13;4.80;;;14.00;99.90;;;;;;5034117;28;20563;-79
2022/08/09 02:07:07;;;;;;;5.95;4.35;;;14.00;99.90;;;;;;5034262;28;20060;-78
2022/08/09 02:09:54;;;;;;;7.50;4.78;;;14.00;99.90;;;;;;5033834;28;20056;-78
2022/08/09 02:12:21;;;;;;;9.15;4.72;;;14.00;99.90;;;;;;5049958;28;20081;-80
2022/08/09 02:14:50;;;;;;;9.27;4.20;;;13.90;99.90;;;;;;5051773;28;20047;-78
2022/08/09 02:17:19;;;;;;;10.25;4.40;;;13.90;99.90;;;;;;5033776;28;20060;-78
2022/08/09 02:19:45;;;;;;;8.30;4.85;;;13.80;99.90;;;;;;5033592;28;20052;-78
2022/08/09 02:22:31;;;;;;;7.45;4.10;;;13.90;99.90;;;;;;5033779;28;20037;-78
2022/08/09 02:25:00;;;;;;;9.82;3.92;;;13.90;99.90;;;;;;5033595;28;20466;-78
2022/08/09 02:27:29;;;;;;;8.40;4.18;;;13.80;99.90;;;;;;5034033;28;20133;-78
2022/08/09 02:29:56;;;;;;;6.88;4.97;;;13.70;99.90;;;;;;5033373;28;20187;-78
2022/08/09 02:32:23;;;;;;;8.40;4.55;;;13.80;99.90;;;;;;5033823;28;20052;-79
2022/08/09 02:34:58;;;;;;;8.15;4.53;;;13.80;99.90;;;;;;5033571;28;20049;-79
2022/08/09 02:37:28;;;;;;;10.95;4.57;;;13.70;99.90;;;;;;5033508;28;20127;-78
2022/08/09 02:40:01;;;;;;;9.68;4.70;;;13.70;99.90;;;;;;5049873;28;20049;-78
2022/08/09 02:42:33;;;;;;;9.80;5.30;;;13.70;99.90;;;;;;5033330;28;20481;-79
2022/08/09 02:45:30;;;;;;;7.53;4.40;;;13.80;99.90;;;;;;5033345;28;20045;-79
2022/08/09 02:48:00;;;;;;;8.45;4.75;;;13.70;99.90;;;;;;5017558;28;20049;-78
2022/08/09 02:50:33;;;;;;;6.97;4.40;;;13.70;99.90;;;;;;5051079;28;20376;-78
2022/08/09 02:53:04;;;;;;;7.88;3.90;;;13.80;99.90;;;;;;5033658;28;20396;-79
2022/08/09 02:55:31;;;;;;;10.18;5.60;;;13.70;99.90;;;;;;5033495;28;20045;-78
2022/08/09 02:57:59;;;;;;;7.20;5.20;;;13.70;99.90;;;;;;5051301;28;20492;-79
2022/08/09 03:00:26;;;;;;;7.00;4.75;;;13.80;99.90;;;;;;5033102;28;20079;-78
2022/08/09 03:02:54;;;;;;;8.30;4.22;;;13.60;99.90;;;;;;5033362;28;20045;-78
2022/08/09 03:05:21;;;;;;;6.00;4.28;;;13.70;99.90;;;;;;5033630;28;20052;-78
2022/08/09 03:07:49;;;;;;;6.93;4.43;;;13.50;99.90;;;;;;5033373;28;20044;-78
2022/08/09 03:10:15;;;;;;;10.25;4.47;;;13.70;99.90;;;;;;5033012;28;20041;-79
2022/08/09 03:12:43;;;;;;;8.80;4.63;;;13.60;99.90;;;;;;5016848;28;20045;-78
2022/08/09 03:15:10;;;;;;;7.07;4.57;;;13.50;99.90;;;;;;5033263;28;20044;-78
2022/08/09 03:17:36;;;;;;;9.95;4.32;;;13.50;99.90;;;;;;5033497;28;20411;-79
2022/08/09 03:20:04;;;;;;;9.55;4.05;;;13.60;99.90;;;;;;5033082;28;20384;-78
2022/08/09 03:22:34;;;;;;;7.15;5.03;;;13.50;99.90;;;;;;5033093;28;20049;-78
2022/08/09 03:25:00;;;;;;;6.38;4.10;;;13.50;99.90;;;;;;5033119;28;20049;-78
2022/08/09 03:27:27;;;;;;;7.72;4.65;;;13.40;99.90;;;;;;5033331;28;20084;-77
2022/08/09 03:29:55;;;;;;;6.05;3.40;;;13.30;99.90;;;;;;5032892;28;20048;-78
2022/08/09 03:32:22;;;;;;;6.57;4.10;;;13.40;99.90;;;;;;5033099;28;20049;-79
2022/08/09 03:34:47;;;;;;;8.07;4.10;;;13.30;99.90;;;;;;5033259;28;20064;-78
2022/08/09 03:37:13;;;;;;;7.80;4.30;;;13.30;99.90;;;;;;5053085;28;20049;-78
2022/08/09 03:39:39;;;;;;;7.32;4.25;;;13.40;99.90;;;;;;5036799;28;20047;-78
2022/08/09 03:42:05;;;;;;;7.57;4.13;;;13.30;99.90;;;;;;5055819;28;20048;-79
2022/08/09 03:44:30;;;;;;;6.63;4.43;;;13.30;99.90;;;;;;5063482;28;20049;-81
2022/08/09 03:46:56;;;;;;;6.95;4.07;;;13.30;99.90;;;;;;5032587;28;20056;-78
2022/08/09 03:49:24;;;;;;;7.80;3.88;;;13.30;99.90;;;;;;5036570;28;20443;-78
2022/08/09 03:51:56;;;;;;;5.78;4.15;;;13.30;99.90;;;;;;5054273;28;20055;-79
2022/08/09 03:54:25;;;;;;;9.07;4.70;;;13.20;99.90;;;;;;5036501;28;20083;-78
2022/08/09 03:56:52;;;;;;;8.15;4.50;;;13.20;99.90;;;;;;5036602;28;20088;-78
2022/08/09 03:59:17;;;;;;;6.82;4.18;;;13.30;99.90;;;;;;5054457;28;20051;-79
2022/08/09 04:01:43;;;;;;;10.25;4.85;;;13.20;99.90;;;;;;5053723;28;20123;-79
2022/08/09 04:04:11;;;;;;;10.38;4.70;;;13.20;99.90;;;;;;5036335;28;20048;-79
2022/08/09 04:06:37;;;;;;;7.63;4.18;;;13.30;99.90;;;;;;5036324;28;20526;-78
2022/08/09 04:09:05;;;;;;;8.38;5.05;;;13.20;99.90;;;;;;5035884;28;20476;-79
2022/08/09 04:11:50;;;;;;;9.02;5.47;;;13.30;99.90;;;;;;5035492;28;20116;-79
2022/08/09 04:14:17;;;;;;;11.98;5.82;;;13.40;99.90;;;;;;5036102;28;20048;-78
2022/08/09 04:16:43;;;;;;;7.80;4.90;;;13.30;99.90;;;;;;5035656;28;20116;-78
2022/08/09 04:19:08;;;;;;;11.48;5.70;;;13.40;99.90;;;;;;5035834;28;20127;-78
2022/08/09 04:21:34;;;;;;;9.43;5.18;;;13.20;99.90;;;;;;5035413;28;20037;-78
2022/08/09 04:23:59;;;;;;;11.65;5.00;;;13.30;99.90;;;;;;5035787;28;20409;-79
2022/08/09 04:26:25;;;;;;;10.95;5.35;;;13.40;99.90;;;;;;5035587;28;20044;-78
2022/08/09 04:28:51;;;;;;;7.25;4.40;;;13.40;99.90;;;;;;5035918;28;20052;-77
2022/08/09 04:31:16;;;;;;;8.38;5.15;;;13.50;99.90;;;;;;5035326;28;20045;-78
2022/08/09 04:33:42;;;;;;;6.72;4.70;;;13.40;99.90;;;;;;5035669;28;20066;-78
2022/08/09 04:36:08;;;;;;;9.10;4.70;;;13.30;99.90;;;;;;5052353;28;20044;-78
2022/08/09 04:38:33;;;;;;;7.03;4.72;;;13.40;99.90;;;;;;5035550;28;20045;-77
2022/08/09 04:40:59;;;;;;;6.15;4.30;;;13.50;99.90;;;;;;5051641;28;20068;-78
2022/08/09 04:43:24;;;;;;;9.13;4.60;;;13.50;99.90;;;;;;5035571;28;20067;-78
2022/08/09 04:45:50;;;;;;;8.57;4.03;;;13.40;99.90;;;;;;5034918;28;20040;-78
2022/08/09 04:48:16;;;;;;;7.55;4.40;;;13.50;99.90;;;;;;5035050;28;20103;-78
2022/08/09 04:50:41;;;;;;;7.88;4.22;;;13.40;99.90;;;;;;5052781;28;20557;-78
2022/08/09 04:53:09;;;;;;;6.22;3.72;;;13.50;99.90;;;;;;5052992;28;20033;-78
2022/08/09 04:55:35;;;;;;;10.90;4.53;;;13.50;99.90;;;;;;5035529;28;20045;-78
2022/08/09 04:58:01;;;;;;;6.55;4.25;;;13.50;99.90;;;;;;5035205;28;20049;-78
2022/08/09 05:00:26;;;;;;;7.82;4.40;;;13.60;99.90;;;;;;5051473;28;20039;-78
2022/08/09 05:02:52;;;;;;;7.35;4.30;;;13.60;99.90;;;;;;5035046;28;20071;-78
2022/08/09 05:05:18;;;;;;;6.72;3.97;;;13.80;99.90;;;;;;5035205;28;20045;-78
2022/08/09 05:07:43;;;;;;;6.07;4.75;;;14.00;99.90;;;;;;5034892;28;20407;-78
2022/08/09 05:10:11;;;;;;;8.18;4.03;;;14.20;99.90;;;;;;5034642;28;20041;-78
2022/08/09 05:12:37;;;;;;;11.38;5.13;;;14.50;99.90;;;;;;5034791;28;20491;-79
2022/08/09 05:15:03;;;;;;;6.53;4.18;;;14.90;99.90;;;;;;5034783;28;20095;-78
2022/08/09 05:17:28;;;;;;;9.60;5.13;;;15.40;99.90;;;;;;5034714;28;20495;-79
2022/08/09 05:19:54;;;;;;;10.27;4.63;;;15.90;99.90;;;;;;5034411;28;20099;-79
2022/08/09 05:22:19;;;;;;;8.20;4.72;;;16.40;99.90;;;;;;5034536;28;20107;-79
2022/08/09 05:24:45;;;;;;;7.57;4.22;;;16.70;99.90;;;;;;5034629;28;20534;-79
2022/08/09 05:27:11;;;;;;;7.18;4.47;;;17.10;99.90;;;;;;5052413;28;20045;-79
2022/08/09 05:29:37;;;;;;;5.57;4.10;;;17.40;99.90;;;;;;5034262;28;20041;-79
2022/08/09 05:32:02;;;;;;;7.30;4.28;;;17.60;99.90;;;;;;5034403;28;20045;-78
2022/08/09 05:34:30;;;;;;;5.65;4.00;;;17.90;99.90;;;;;;5034531;28;20403;-79
2022/08/09 05:36:56;;;;;;;6.38;4.03;;;18.20;99.90;;;;;;5052129;28;20037;-79
2022/08/09 05:39:23;;;;;;;7.75;4.13;;;18.40;99.90;;;;;;5034189;28;20052;-79
2022/08/09 05:41:48;;;;;;;6.85;4.72;;;18.60;99.90;;;;;;5034003;28;20055;-78
2022/08/09 05:44:15;;;;;;;8.15;4.10;;;18.80;99.90;;;;;;5034061;28;20478;-79
2022/08/09 05:46:40;;;;;;;10.70;4.43;;;19.10;99.90;;;;;;5034408;28;20053;-79
2022/08/09 05:49:06;;;;;;;8.45;4.15;;;19.20;99.90;;;;;;5034181;28;20051;-79
2022/08/09 05:51:32;;;;;;;5.63;3.78;;;19.40;99.90;;;;;;5033645;28;20141;-78
2022/08/09 05:53:57;;;;;;;6.65;4.03;;;19.50;99.90;;;;;;5051898;28;20115;-79
2022/08/09 05:56:25;;;;;;;8.18;4.13;;;19.60;99.90;;;;;;5034039;28;20132;-79
2022/08/09 05:58:56;;;;;;;6.07;3.88;;;19.80;99.90;;;;;;5050889;28;20045;-79
2022/08/09 06:01:28;;;;;;;6.60;4.10;;;19.80;99.90;;;;;;5033541;28;20037;-79
2022/08/09 06:03:55;;;;;;;5.28;3.53;;;19.70;99.90;;;;;;5033954;28;20120;-78
2022/08/09 06:06:21;;;;;;;6.80;4.18;;;19.70;99.90;;;;;;5051659;28;20041;-79
2022/08/09 06:08:47;;;;;;;6.50;3.72;;;19.60;99.90;;;;;;5033941;28;20041;-79
2022/08/09 06:11:13;;;;;;;6.85;4.10;;;19.30;99.90;;;;;;5033680;28;20052;-79
2022/08/09 06:13:39;;;;;;;9.88;3.70;;;19.30;99.90;;;;;;5033776;28;20037;-79
2022/08/09 06:16:05;;;;;;;8.65;4.47;;;19.40;99.90;;;;;;5034015;28;20053;-78
2022/08/09 06:18:31;;;;;;;6.57;3.90;;;19.70;99.90;;;;;;5034255;28;20051;-79
2022/08/09 06:20:57;;;;;;;9.57;3.97;;;19.90;99.90;;;;;;5033285;28;20048;-79
2022/08/09 06:23:23;;;;;;;12.13;5.25;;;20.30;99.90;;;;;;5033721;28;20695;-79
2022/08/09 06:25:49;;;;;;;6.57;4.38;;;20.50;99.90;;;;;;5033773;28;20121;-79
2022/08/09 06:28:15;;;;;;;7.22;4.00;;;20.70;99.90;;;;;;5051453;28;20116;-78
2022/08/09 06:30:41;;;;;;;8.02;3.80;;;20.80;99.90;;;;;;5033467;28;20044;-79
2022/08/09 06:33:07;;;;;;;5.25;3.85;;;21.00;99.90;;;;;;5033759;28;20040;-79
2022/08/09 06:35:33;;;;;;;7.47;3.92;;;21.10;99.90;;;;;;5033906;28;20155;-80
2022/08/09 06:37:59;;;;;;;5.53;3.90;;;21.30;99.90;;;;;;5033476;28;20041;-80
2022/08/09 06:40:25;;;;;;;8.23;4.10;;;21.40;99.90;;;;;;5017087;28;20490;-78
2022/08/09 06:42:51;;;;;;;4.45;3.38;;;21.60;99.90;;;;;;5033447;28;20147;-78
2022/08/09 06:45:17;;;;;;;6.40;3.70;;;21.70;99.90;;;;;;5033406;28;20041;-79
2022/08/09 06:47:43;;;;;;;4.50;3.53;;;21.90;99.90;;;;;;5033670;28;20048;-79
2022/08/09 06:50:09;;;;;;;5.45;3.50;;;22.10;99.90;;;;;;5033144;28;20049;-79
2022/08/09 06:52:35;;;;;;;6.65;3.58;;;22.00;99.90;;;;;;5033377;28;20112;-78
2022/08/09 06:55:00;;;;;;;4.93;3.22;;;22.00;99.90;;;;;;5033776;28;20471;-78
2022/08/09 06:57:26;;;;;;;4.95;3.28;;;22.00;99.90;;;;;;5033410;28;20472;-79
2022/08/09 06:59:52;;;;;;;5.57;2.85;;;21.80;99.90;;;;;;5033648;28;20106;-80
2022/08/09 07:02:18;;;;;;;4.60;2.88;;;21.40;99.90;;;;;;5046335;28;20017;-80
2022/08/09 07:04:44;;;;;;;6.50;3.22;;;21.00;99.90;;;;;;5059236;28;20063;-79
2022/08/09 07:07:10;;;;;;;6.43;2.83;;;20.90;99.90;;;;;;5043842;28;20053;-80
2022/08/09 07:09:35;;;;;;;7.43;2.85;;;20.90;99.90;;;;;;5035039;28;20043;-79
2022/08/09 07:12:01;;;;;;;6.53;3.17;;;20.70;99.90;;;;;;5037293;28;20531;-79
2022/08/09 07:14:27;;;;;;;5.40;2.90;;;20.50;99.90;;;;;;5037583;28;20045;-78
2022/08/09 07:16:53;;;;;;;4.88;2.55;;;20.40;99.90;;;;;;5037428;28;20476;-79
2022/08/09 07:19:18;;;;;;;5.45;2.80;;;20.40;99.90;;;;;;5037203;28;20041;-79
2022/08/09 07:21:45;;;;;;;5.05;2.80;;;20.50;99.90;;;;;;5037063;28;20401;-78
2022/08/09 07:24:10;;;;;;;5.00;2.33;;;20.40;99.90;;;;;;5037387;28;20037;-79
2022/08/09 07:26:36;;;;;;;3.13;2.00;;;20.40;99.90;;;;;;5037352;28;20599;-78
2022/08/09 07:29:04;;;;;;;4.72;2.17;;;20.60;99.90;;;;;;5020655;28;20120;-78
2022/08/09 07:31:29;;;;;;;4.20;2.03;;;21.10;99.90;;;;;;5037022;28;20377;-78
2022/08/09 07:33:55;;;;;;;4.72;1.92;;;21.50;99.90;;;;;;5036886;28;20048;-78
2022/08/09 07:36:20;;;;;;;4.35;2.10;;;22.00;99.90;;;;;;5037179;28;20413;-78
2022/08/09 07:38:46;;;;;;;4.80;1.92;;;22.40;99.90;;;;;;5037185;28;20652;-78
2022/08/09 07:41:12;;;;;;;3.42;1.40;;;22.70;99.90;;;;;;5036587;28;20467;-78
2022/08/09 07:43:38;;;;;;;2.35;1.10;;;22.80;99.90;;;;;;5020404;28;20040;-79
2022/08/09 07:46:03;;;;;;;3.33;1.08;;;22.80;99.90;;;;;;5054830;28;20545;-79
2022/08/09 07:48:29;;;;;;;4.50;1.10;;;23.00;99.90;;;;;;5054772;28;20063;-78
2022/08/09 07:50:56;;;;;;;2.38;1.00;;;23.30;99.90;;;;;;5036789;28;20083;-80
2022/08/09 07:53:21;;;;;;;3.72;1.55;;;23.30;99.90;;;;;;5037002;28;20033;-79
2022/08/09 07:55:47;;;;;;;2.40;1.17;;;23.30;99.90;;;;;;5036740;28;20482;-78
2022/08/09 07:58:13;;;;;;;3.70;0.90;;;23.30;99.90;;;;;;5054633;28;20120;-79
2022/08/09 08:00:38;;;;;;;3.60;1.17;;;23.50;99.90;;;;;;5020089;28;20037;-77
2022/08/09 08:03:04;;;;;;;3.28;1.00;;;23.70;99.90;;;;;;5036473;28;20049;-79
2022/08/09 08:05:30;;;;;;;1.08;0.60;;;24.00;99.90;;;;;;5036515;28;20483;-79
2022/08/09 08:07:56;;;;;;;1.98;0.80;;;24.10;99.90;;;;;;5036501;28;20079;-78
2022/08/09 08:10:22;;;;;;;1.55;0.90;;;24.00;99.90;;;;;;5054231;28;20045;-80
2022/08/09 08:12:47;;;;;;;1.33;0.70;;;24.10;99.90;;;;;;5036314;28;20056;-79
2022/08/09 08:15:17;;;;;;;1.20;0.70;;;24.10;99.90;;;;;;5036869;28;20045;-79
2022/08/09 08:17:44;;;;;;;1.40;0.77;;;24.20;99.90;;;;;;5019684;28;20496;-81
2022/08/09 08:20:10;;;;;;;1.20;0.80;;;24.30;99.90;;;;;;5036348;28;20488;-79
2022/08/09 08:22:36;;;;;;;3.80;0.93;;;24.30;99.90;;;;;;5035516;28;20041;-80
2022/08/09 08:25:02;;;;;;;3.15;0.75;;;24.40;99.90;;;;;;5053178;28;20047;-78
2022/08/09 08:27:28;;;;;;;2.58;0.93;;;24.60;99.90;;;;;;5052727;28;20037;-78
2022/08/09 08:29:53;;;;;;;2.08;0.80;;;24.70;99.90;;;;;;5054098;28;20124;-78
2022/08/09 08:32:21;;;;;;;1.33;0.60;;;24.90;99.90;;;;;;5036407;28;20049;-80
2022/08/09 08:34:47;;;;;;;2.60;0.65;;;24.60;99.90;;;;;;5036131;28;20055;-80
2022/08/09 08:37:12;;;;;;;1.95;0.85;;;24.40;99.90;;;;;;5036286;28;20440;-80
2022/08/09 08:39:38;;;;;;;1.88;0.80;;;24.30;99.90;;;;;;5019405;28;20045;-79
2022/08/09 08:42:04;;;;;;;2.58;0.90;;;24.40;99.90;;;;;;5036117;28;20045;-78
2022/08/09 08:44:34;;;;;;;1.55;0.80;;;24.20;99.90;;;;;;5035993;28;20500;-79
2022/08/09 08:47:01;;;;;;;1.20;0.57;;;24.10;99.90;;;;;;5035768;28;20090;-79
2022/08/09 08:49:28;;;;;;;2.25;0.95;;;24.10;99.90;;;;;;5035718;28;20049;-79
2022/08/09 08:51:55;;;;;;;3.15;1.13;;;24.20;99.90;;;;;;5035694;28;20051;-78
2022/08/09 08:54:20;;;;;;;3.47;1.00;;;24.40;99.90;;;;;;5053679;28;20076;-78
2022/08/09 08:56:46;;;;;;;1.40;0.55;;;24.60;99.90;;;;;;5053905;28;20542;-78
2022/08/09 08:59:13;;;;;;;2.88;0.80;;;24.80;99.90;;;;;;5035495;28;20037;-79
2022/08/09 09:01:42;;;;;;;2.30;0.80;;;24.90;99.90;;;;;;5035132;28;20040;-79
2022/08/09 09:04:10;;;;;;;1.60;0.70;;;25.10;99.90;;;;;;5035599;28;20029;-78
2022/08/09 09:06:40;;;;;;;1.83;0.70;;;25.30;99.90;;;;;;5035502;28;20049;-80
2022/08/09 09:09:06;;;;;;;0.75;0.65;;;25.40;99.90;;;;;;5035291;28;20083;-79
2022/08/09 09:11:34;;;;;;;2.03;0.60;;;25.30;99.90;;;;;;5018512;28;20044;-79
2022/08/09 09:14:08;;;;;;;2.00;0.77;;;25.40;99.90;;;;;;5035445;28;20499;-79
2022/08/09 09:16:34;;;;;;;4.18;0.88;;;25.50;99.80;;;;;;5035810;28;20381;-80
2022/08/09 09:19:08;;;;;;;1.05;0.50;;;25.60;99.20;;;;;;5035315;28;20120;-78
2022/08/09 09:21:33;;;;;;;1.52;0.47;;;25.50;97.60;;;;;;5035052;28;20049;-78
2022/08/09 09:24:04;;;;;;;2.83;0.70;;;25.30;98.70;;;;;;5035006;28;20171;-78
2022/08/09 09:26:30;;;;;;;0.65;0.38;;;25.30;98.60;;;;;;5035215;28;20090;-80
2022/08/09 09:28:56;;;;;;;1.25;0.75;;;25.20;98.80;;;;;;5034972;28;20540;-78
2022/08/09 09:31:23;;;;;;;1.40;0.70;;;25.30;99.10;;;;;;5052662;28;20052;-77
2022/08/09 09:33:49;;;;;;;1.02;0.40;;;25.50;98.30;;;;;;5034861;28;20543;-79
2022/08/09 09:36:15;;;;;;;0.90;0.47;;;25.60;98.40;;;;;;5018320;28;20048;-79
2022/08/09 09:38:49;;;;;;;2.38;0.60;;;25.60;98.70;;;;;;5018764;28;20072;-79
2022/08/09 09:41:26;;;;;;;1.65;0.70;;;25.70;97.10;;;;;;5017874;28;20045;-79
2022/08/09 09:43:57;;;;;;;1.55;0.50;;;25.90;95.80;;;;;;5034676;28;20037;-78
2022/08/09 09:46:28;;;;;;;1.25;0.40;;;26.00;95.50;;;;;;5034407;28;20041;-78
2022/08/09 09:49:21;;;;;;;0.93;0.20;;;26.10;95.30;;;;;;5034710;28;20103;-79
2022/08/09 09:51:46;;;;;;;1.58;0.60;;;26.30;94.30;;;;;;5034301;28;20040;-78
2022/08/09 09:54:17;;;;;;;1.20;0.43;;;26.30;94.50;;;;;;5035019;28;20044;-78
2022/08/09 09:56:45;;;;;;;2.10;0.55;;;26.40;94.30;;;;;;5034531;28;20123;-79
2022/08/09 09:59:13;;;;;;;2.22;0.60;;;26.30;94.20;;;;;;5034253;28;20124;-78
2022/08/09 10:01:43;;;;;;;0.63;0.50;;;26.40;94.20;;;;;;5034584;28;20041;-78
2022/08/09 10:04:17;;;;;;;0.98;0.50;;;26.40;94.00;;;;;;5034365;28;20064;-80
2022/08/09 10:06:45;;;;;;;0.95;0.60;;;26.60;92.50;;;;;;5034282;28;20130;-79
2022/08/09 10:09:13;;;;;;;2.65;0.75;;;26.60;93.80;;;;;;5034056;28;20040;-78
2022/08/09 10:11:39;;;;;;;1.67;0.80;;;26.40;93.60;;;;;;5033611;28;20045;-78
2022/08/09 10:14:05;;;;;;;2.63;0.70;;;26.00;94.30;;;;;;5033991;28;20041;-78
2022/08/09 10:16:35;;;;;;;2.03;0.70;;;25.80;95.00;;;;;;5034031;28;20048;-78
2022/08/09 10:19:07;;;;;;;0.80;0.53;;;25.90;93.80;;;;;;5034072;28;20056;-78
2022/08/09 10:21:44;;;;;;;0.50;0.50;;;25.90;94.40;;;;;;5033472;28;20044;-78
2022/08/09 10:24:10;;;;;;;1.60;0.80;;;26.00;94.20;;;;;;5033968;28;20033;-79
2022/08/09 10:26:36;;;;;;;1.33;0.70;;;26.00;94.30;;;;;;5017625;28;20045;-78
2022/08/09 10:29:04;;;;;;;1.55;0.55;;;26.00;94.10;;;;;;5033787;28;20063;-79
2022/08/09 10:31:30;;;;;;;4.22;0.68;;;26.10;94.00;;;;;;5051817;28;20175;-78
2022/08/09 10:33:56;;;;;;;2.42;0.40;;;26.10;92.80;;;;;;5051906;28;20646;-78
2022/08/09 10:36:22;;;;;;;0.98;0.60;;;25.90;92.70;;;;;;5041392;28;20029;-78
2022/08/09 10:38:47;;;;;;;2.53;0.73;;;25.80;93.10;;;;;;5047708;28;20029;-77
2022/08/09 10:41:14;;;;;;;0.80;0.55;;;25.80;93.00;;;;;;5040538;28;20083;-78
2022/08/09 10:43:45;;;;;;;1.10;0.60;;;25.70;93.30;;;;;;5033721;28;20044;-77
2022/08/09 10:47:06;;;;;;;0.55;0.40;;;25.80;93.00;;;;;;5017071;28;20049;-78
2022/08/09 10:49:56;;;;;;;5.57;0.50;;;25.90;93.10;;;;;;5030052;28;20053;-78
2022/08/09 10:52:36;;;;;;;0.50;0.50;;;26.00;92.30;;;;;;5017358;28;20506;-78
2022/08/09 10:55:21;;;;;;;4.75;0.82;;;26.00;92.40;;;;;;5017133;28;20049;-78
2022/08/09 10:57:47;;;;;;;1.17;0.30;;;26.20;90.90;;;;;;5033494;28;20128;-80
2022/08/09 11:00:27;;;;;;;1.60;0.40;;;26.30;90.90;;;;;;5033133;28;20179;-79
2022/08/09 11:02:54;;;;;;;1.00;0.50;;;26.40;90.40;;;;;;5033543;28;20056;-78
2022/08/09 11:05:21;;;;;;;1.23;0.75;;;26.50;90.00;;;;;;5051099;28;20174;-78
2022/08/09 11:07:47;;;;;;;0.50;0.50;;;26.60;88.50;;;;;;5033814;28;20052;-78
2022/08/09 11:10:14;;;;;;;2.67;0.68;;;26.60;87.20;;;;;;5033376;28;20043;-78
2022/08/09 11:12:39;;;;;;;0.82;0.60;;;26.40;89.00;;;;;;5033362;28;20045;-78
2022/08/09 11:15:17;;;;;;;3.17;0.70;;;26.50;90.00;;;;;;5050268;28;20055;-79
2022/08/09 11:17:48;;;;;;;1.95;0.60;;;26.60;88.30;;;;;;5033284;28;20049;-79
2022/08/09 11:20:14;;;;;;;1.33;0.60;;;26.50;90.00;;;;;;5033517;28;20430;-78
2022/08/09 11:22:39;;;;;;;2.50;0.60;;;26.50;85.60;;;;;;5033418;28;20037;-79
2022/08/09 11:25:06;;;;;;;0.85;0.50;;;26.50;81.90;;;;;;5033355;28;20041;-78
2022/08/09 11:27:35;;;;;;;0.57;0.40;;;26.50;82.50;;;;;;5033815;28;20392;-78
2022/08/09 11:30:03;;;;;;;1.65;0.65;;;26.70;80.90;;;;;;5016390;28;20036;-78
2022/08/09 11:32:42;;;;;;;0.80;0.80;;;26.80;80.80;;;;;;5033285;28;20044;-79
2022/08/09 11:35:19;;;;;;;0.85;0.55;;;27.00;73.80;;;;;;5033620;28;20153;-79
2022/08/09 11:37:47;;;;;;;1.98;0.65;;;26.90;78.50;;;;;;5033625;28;20051;-79
2022/08/09 11:40:15;;;;;;;1.90;0.68;;;27.00;79.60;;;;;;5033233;28;20056;-78
2022/08/09 11:42:48;;;;;;;0.77;0.50;;;27.00;78.80;;;;;;5033140;28;20037;-79
2022/08/09 11:45:19;;;;;;;0.70;0.50;;;27.10;76.90;;;;;;5016912;28;20098;-78
2022/08/09 11:47:50;;;;;;;;;;;27.10;69.10;;;;;;5033795;28;20488;-79
2022/08/09 11:50:16;;;;;;;0.55;0.45;;;26.90;74.10;;;;;;5032741;28;19920;-77
2022/08/09 11:53:00;;;;;;;0.60;0.50;;;26.70;73.40;;;;;;5033478;28;20040;-78
2022/08/09 11:55:36;;;;;;;0.47;0.45;;;26.60;68.40;;;;;;5033005;28;20504;-78
2022/08/09 11:58:14;;;;;;;0.65;0.50;;;26.50;68.80;;;;;;5054327;28;20033;-80
2022/08/09 12:00:49;;;;;;;0.68;0.50;;;26.60;71.90;;;;;;5054383;28;20099;-79
2022/08/09 12:03:20;;;;;;;1.88;0.90;;;26.80;72.10;;;;;;5019926;28;20408;-78
2022/08/09 12:05:46;;;;;;;3.45;0.70;;;27.00;70.10;;;;;;5020076;28;20174;-79
2022/08/09 12:08:14;;;;;;;0.75;0.57;;;27.10;69.80;;;;;;5020132;28;20037;-78
2022/08/09 12:10:47;;;;;;;4.03;0.65;;;27.20;70.80;;;;;;5036690;28;20041;-78
2022/08/09 12:13:33;;;;;;;1.25;0.50;;;27.20;71.00;;;;;;5036424;28;20073;-78
2022/08/09 12:16:01;;;;;;;3.38;0.70;;;27.30;72.30;;;;;;5037054;28;20072;-80
2022/08/09 12:18:27;;;;;;;0.70;0.45;;;27.30;70.00;;;;;;5036256;28;20507;-79
2022/08/09 12:20:53;;;;;;;1.95;0.60;;;27.40;69.30;;;;;;5035885;28;20122;-79
2022/08/09 12:23:18;;;;;;;1.05;0.60;;;27.50;70.40;;;;;;5019777;28;20041;-78
2022/08/09 12:25:49;;;;;;;0.98;0.45;;;27.60;69.20;;;;;;5019677;28;20041;-78
2022/08/09 12:28:17;;;;;;;1.30;0.50;;;27.60;66.70;;;;;;5020064;28;20068;-79
2022/08/09 12:30:43;;;;;;;0.85;0.50;;;27.50;67.20;;;;;;5020281;28;20128;-79
2022/08/09 12:33:10;;;;;;;2.22;0.50;;;27.50;65.20;;;;;;5036438;28;20603;-78
2022/08/09 12:35:36;;;;;;;2.03;0.68;;;27.30;65.70;;;;;;5036630;28;20377;-79
2022/08/09 12:38:22;;;;;;;0.55;0.55;;;27.30;67.20;;;;;;5035995;28;20037;-79
2022/08/09 12:40:51;;;;;;;0.57;0.50;;;27.40;67.90;;;;;;5035808;28;20112;-79
2022/08/09 12:43:22;;;;;;;0.73;0.60;;;27.50;66.80;;;;;;5035719;28;20127;-79
2022/08/09 12:45:48;;;;;;;1.48;0.47;;;27.50;66.30;;;;;;5035807;28;20115;-78
2022/08/09 12:48:14;;;;;;;0.70;0.60;;;27.40;64.50;;;;;;5035819;28;20048;-78
2022/08/09 12:50:42;;;;;;;0.55;0.43;;;27.20;65.90;;;;;;5035643;28;20112;-78
2022/08/09 12:53:28;;;;;;;0.55;0.50;;;27.20;65.10;;;;;;5035605;28;20076;-78